sensor_id;sensor_type;location;lat;lon;timestamp;pressure;altitude;pressure_sealevel;temperature;humidity
43155;BME280;34212;51.018;13.586;2023-03-25T00:00:41;96816.84;;;10.00;89.13
43155;BME280;34212;51.018;13.586;2023-03-25T00:05:44;96812.91;;;9.96;88.91
43155;BME280;34212;51.018;13.586;2023-03-25T00:10:54;96802.25;;;9.96;88.47
43155;BME280;34212;51.018;13.586;2023-03-25T00:15:56;96810.06;;;9.91;88.35
43155;BME280;34212;51.018;13.586;2023-03-25T00:21:03;96798.75;;;9.89;87.26
43155;BME280;34212;51.018;13.586;2023-03-25T00:26:05;96788.91;;;9.83;87.69
43155;BME280;34212;51.018;13.586;2023-03-25T00:31:11;96780.28;;;9.81;87.40
43155;BME280;34212;51.018;13.586;2023-03-25T00:36:13;96777.03;;;9.79;87.36
43155;BME280;34212;51.018;13.586;2023-03-25T00:41:17;96784.63;;;9.82;87.57
43155;BME280;34212;51.018;13.586;2023-03-25T00:46:30;96789.53;;;9.78;87.49
43155;BME280;34212;51.018;13.586;2023-03-25T00:51:32;96788.06;;;9.76;87.73
43155;BME280;34212;51.018;13.586;2023-03-25T00:56:34;96793.41;;;9.76;87.90
43155;BME280;34212;51.018;13.586;2023-03-25T01:01:36;96789.28;;;9.73;87.47
43155;BME280;34212;51.018;13.586;2023-03-25T01:06:40;96785.19;;;9.77;87.37
43155;BME280;34212;51.018;13.586;2023-03-25T01:11:45;96780.69;;;9.78;87.10
43155;BME280;34212;51.018;13.586;2023-03-25T01:16:47;96774.94;;;9.74;88.15
43155;BME280;34212;51.018;13.586;2023-03-25T01:21:49;96770.84;;;9.71;88.03
43155;BME280;34212;51.018;13.586;2023-03-25T01:26:50;96771.88;;;9.70;88.43
43155;BME280;34212;51.018;13.586;2023-03-25T01:31:52;96762.44;;;9.75;88.17
43155;BME280;34212;51.018;13.586;2023-03-25T01:36:54;96752.44;;;9.83;88.79
43155;BME280;34212;51.018;13.586;2023-03-25T01:41:55;96743.88;;;9.88;88.31
43155;BME280;34212;51.018;13.586;2023-03-25T01:47:00;96737.75;;;9.94;88.84
43155;BME280;34212;51.018;13.586;2023-03-25T01:52:20;96716.84;;;9.98;88.71
43155;BME280;34212;51.018;13.586;2023-03-25T01:57:23;96708.44;;;10.01;88.53
43155;BME280;34212;51.018;13.586;2023-03-25T02:02:27;96710.72;;;10.04;88.16
43155;BME280;34212;51.018;13.586;2023-03-25T02:07:38;96711.13;;;10.07;88.41
43155;BME280;34212;51.018;13.586;2023-03-25T02:12:42;96715.81;;;10.05;87.66
43155;BME280;34212;51.018;13.586;2023-03-25T02:17:58;96714.81;;;10.06;87.45
43155;BME280;34212;51.018;13.586;2023-03-25T02:39:27;96678.13;;;10.15;87.55
43155;BME280;34212;51.018;13.586;2023-03-25T02:50:03;96674.22;;;9.98;87.72
43155;BME280;34212;51.018;13.586;2023-03-25T02:55:10;96684.66;;;9.86;87.55
43155;BME280;34212;51.018;13.586;2023-03-25T03:00:15;96689.56;;;9.76;87.87
43155;BME280;34212;51.018;13.586;2023-03-25T03:05:44;96671.72;;;9.69;87.35
43155;BME280;34212;51.018;13.586;2023-03-25T03:10:50;96673.34;;;9.64;87.66
43155;BME280;34212;51.018;13.586;2023-03-25T03:32:15;96672.47;;;9.50;87.08
43155;BME280;34212;51.018;13.586;2023-03-25T03:37:34;96675.78;;;9.52;87.09
43155;BME280;34212;51.018;13.586;2023-03-25T03:42:41;96681.72;;;9.54;86.52
43155;BME280;34212;51.018;13.586;2023-03-25T03:47:52;96689.72;;;9.61;86.52
43155;BME280;34212;51.018;13.586;2023-03-25T03:53:01;96692.22;;;9.69;86.87
43155;BME280;34212;51.018;13.586;2023-03-25T03:58:14;96683.84;;;9.79;87.00
43155;BME280;34212;51.018;13.586;2023-03-25T04:03:20;96694.09;;;9.82;86.23
43155;BME280;34212;51.018;13.586;2023-03-25T04:08:33;96695.31;;;9.79;86.63
43155;BME280;34212;51.018;13.586;2023-03-25T04:13:41;96690.16;;;9.78;86.19
43155;BME280;34212;51.018;13.586;2023-03-25T04:18:44;96698.78;;;9.80;86.40
43155;BME280;34212;51.018;13.586;2023-03-25T04:23:48;96701.44;;;9.80;86.40
43155;BME280;34212;51.018;13.586;2023-03-25T04:28:50;96705.72;;;9.81;87.03
43155;BME280;34212;51.018;13.586;2023-03-25T04:33:51;96698.78;;;9.80;85.97
43155;BME280;34212;51.018;13.586;2023-03-25T04:38:54;96692.00;;;9.77;85.54
43155;BME280;34212;51.018;13.586;2023-03-25T04:43:56;96703.47;;;9.78;85.47
43155;BME280;34212;51.018;13.586;2023-03-25T04:48:58;96704.72;;;9.82;85.57
43155;BME280;34212;51.018;13.586;2023-03-25T04:54:00;96700.41;;;9.87;85.47
43155;BME280;34212;51.018;13.586;2023-03-25T04:59:02;96698.38;;;9.83;84.46
43155;BME280;34212;51.018;13.586;2023-03-25T05:04:04;96695.88;;;9.75;83.63
43155;BME280;34212;51.018;13.586;2023-03-25T05:09:08;96699.97;;;9.70;83.72
43155;BME280;34212;51.018;13.586;2023-03-25T05:14:12;96702.00;;;9.68;83.46
43155;BME280;34212;51.018;13.586;2023-03-25T05:19:15;96706.34;;;9.69;83.45
43155;BME280;34212;51.018;13.586;2023-03-25T05:24:19;96707.34;;;9.68;83.75
43155;BME280;34212;51.018;13.586;2023-03-25T05:29:20;96706.34;;;9.69;83.58
43155;BME280;34212;51.018;13.586;2023-03-25T05:34:22;96711.03;;;9.74;83.66
43155;BME280;34212;51.018;13.586;2023-03-25T05:39:25;96705.94;;;9.79;83.01
43155;BME280;34212;51.018;13.586;2023-03-25T05:44:27;96709.66;;;9.78;81.34
43155;BME280;34212;51.018;13.586;2023-03-25T05:49:29;96720.88;;;9.67;81.33
43155;BME280;34212;51.018;13.586;2023-03-25T05:54:30;96718.78;;;9.62;80.32
43155;BME280;34212;51.018;13.586;2023-03-25T05:59:32;96726.16;;;9.54;80.27
43155;BME280;34212;51.018;13.586;2023-03-25T06:04:34;96738.00;;;9.44;80.32
43155;BME280;34212;51.018;13.586;2023-03-25T06:09:41;96732.81;;;9.30;80.97
43155;BME280;34212;51.018;13.586;2023-03-25T06:14:47;96746.66;;;9.18;81.96
43155;BME280;34212;51.018;13.586;2023-03-25T06:19:54;96752.97;;;9.11;82.42
43155;BME280;34212;51.018;13.586;2023-03-25T06:24:55;96765.84;;;9.07;82.22
43155;BME280;34212;51.018;13.586;2023-03-25T06:29:56;96768.13;;;9.10;83.25
43155;BME280;34212;51.018;13.586;2023-03-25T06:34:58;96771.09;;;9.29;83.82
43155;BME280;34212;51.018;13.586;2023-03-25T06:40:00;96771.53;;;9.39;82.54
43155;BME280;34212;51.018;13.586;2023-03-25T06:45:02;96767.84;;;9.40;83.30
43155;BME280;34212;51.018;13.586;2023-03-25T06:50:17;96783.66;;;9.48;83.45
43155;BME280;34212;51.018;13.586;2023-03-25T06:55:19;96790.25;;;9.59;83.37
43155;BME280;34212;51.018;13.586;2023-03-25T07:00:21;96796.47;;;9.73;83.36
43155;BME280;34212;51.018;13.586;2023-03-25T07:05:24;96792.00;;;9.86;83.55
43155;BME280;34212;51.018;13.586;2023-03-25T07:10:26;96797.78;;;10.03;83.00
43155;BME280;34212;51.018;13.586;2023-03-25T07:15:27;96792.28;;;10.25;83.47
43155;BME280;34212;51.018;13.586;2023-03-25T07:20:29;96803.44;;;10.48;82.16
43155;BME280;34212;51.018;13.586;2023-03-25T07:25:31;96808.38;;;10.78;81.35
43155;BME280;34212;51.018;13.586;2023-03-25T07:30:33;96812.47;;;11.00;80.54
43155;BME280;34212;51.018;13.586;2023-03-25T07:35:34;96814.50;;;10.98;79.80
43155;BME280;34212;51.018;13.586;2023-03-25T07:40:36;96817.59;;;10.82;80.10
43155;BME280;34212;51.018;13.586;2023-03-25T07:45:38;96821.47;;;10.46;80.00
43155;BME280;34212;51.018;13.586;2023-03-25T07:50:45;96828.34;;;10.21;81.03
43155;BME280;34212;51.018;13.586;2023-03-25T07:55:46;96841.00;;;10.05;81.87
43155;BME280;34212;51.018;13.586;2023-03-25T08:01:14;96834.22;;;9.96;83.95
43155;BME280;34212;51.018;13.586;2023-03-25T08:06:15;96829.09;;;9.94;84.48
43155;BME280;34212;51.018;13.586;2023-03-25T08:11:17;96836.03;;;9.89;84.85
43155;BME280;34212;51.018;13.586;2023-03-25T08:16:18;96828.47;;;9.86;85.64
43155;BME280;34212;51.018;13.586;2023-03-25T08:21:20;96823.38;;;9.91;86.24
43155;BME280;34212;51.018;13.586;2023-03-25T08:26:28;96836.59;;;9.78;86.00
43155;BME280;34212;51.018;13.586;2023-03-25T08:31:44;96830.84;;;9.67;88.04
43155;BME280;34212;51.018;13.586;2023-03-25T08:36:48;96841.44;;;9.61;88.04
43155;BME280;34212;51.018;13.586;2023-03-25T08:41:52;96858.13;;;9.41;87.95
43155;BME280;34212;51.018;13.586;2023-03-25T08:46:54;96859.06;;;9.27;89.45
43155;BME280;34212;51.018;13.586;2023-03-25T08:51:57;96860.19;;;9.11;89.69
43155;BME280;34212;51.018;13.586;2023-03-25T09:04:20;96869.50;;;8.72;92.67
43155;BME280;34212;51.018;13.586;2023-03-25T09:09:22;96877.25;;;8.74;92.52
43155;BME280;34212;51.018;13.586;2023-03-25T09:14:23;96883.06;;;8.63;92.16
43155;BME280;34212;51.018;13.586;2023-03-25T09:19:25;96875.63;;;8.51;93.01
43155;BME280;34212;51.018;13.586;2023-03-25T09:24:27;96871.25;;;8.44;93.87
43155;BME280;34212;51.018;13.586;2023-03-25T09:29:29;96853.56;;;8.51;94.33
43155;BME280;34212;51.018;13.586;2023-03-25T09:34:32;96864.34;;;8.71;94.88
43155;BME280;34212;51.018;13.586;2023-03-25T09:39:34;96852.66;;;8.93;95.03
43155;BME280;34212;51.018;13.586;2023-03-25T09:44:55;96861.59;;;9.07;94.24
43155;BME280;34212;51.018;13.586;2023-03-25T09:50:04;96854.47;;;9.14;94.25
43155;BME280;34212;51.018;13.586;2023-03-25T09:55:10;96845.03;;;9.12;94.73
43155;BME280;34212;51.018;13.586;2023-03-25T10:00:23;96846.75;;;9.19;94.57
43155;BME280;34212;51.018;13.586;2023-03-25T10:05:48;96845.09;;;9.18;94.25
43155;BME280;34212;51.018;13.586;2023-03-25T10:11:23;96841.03;;;9.22;94.07
43155;BME280;34212;51.018;13.586;2023-03-25T10:22:05;96815.63;;;9.55;94.84
43155;BME280;34212;51.018;13.586;2023-03-25T10:27:22;96822.91;;;9.87;96.01
43155;BME280;34212;51.018;13.586;2023-03-25T10:32:35;96807.03;;;10.21;96.35
43155;BME280;34212;51.018;13.586;2023-03-25T10:37:40;96818.78;;;10.39;94.69
43155;BME280;34212;51.018;13.586;2023-03-25T10:42:58;96812.25;;;10.49;94.39
43155;BME280;34212;51.018;13.586;2023-03-25T10:48:15;96798.94;;;10.75;94.59
43155;BME280;34212;51.018;13.586;2023-03-25T10:53:22;96805.06;;;11.02;93.41
43155;BME280;34212;51.018;13.586;2023-03-25T10:58:24;96803.81;;;11.25;92.58
43155;BME280;34212;51.018;13.586;2023-03-25T11:03:31;96804.22;;;11.22;91.27
43155;BME280;34212;51.018;13.586;2023-03-25T11:08:34;96796.22;;;11.22;91.23
43155;BME280;34212;51.018;13.586;2023-03-25T11:13:36;96795.56;;;11.33;90.76
43155;BME280;34212;51.018;13.586;2023-03-25T11:18:37;96796.56;;;11.45;89.80
43155;BME280;34212;51.018;13.586;2023-03-25T11:23:49;96810.81;;;10.79;87.11
43155;BME280;34212;51.018;13.586;2023-03-25T11:29:05;96852.88;;;9.96;87.82
43155;BME280;34212;51.018;13.586;2023-03-25T11:34:20;96818.69;;;9.52;93.15
43155;BME280;34212;51.018;13.586;2023-03-25T11:44:31;96789.19;;;9.53;95.32
43155;BME280;34212;51.018;13.586;2023-03-25T11:49:35;96775.38;;;9.78;95.04
43155;BME280;34212;51.018;13.586;2023-03-25T11:54:40;96775.03;;;9.94;94.94
43155;BME280;34212;51.018;13.586;2023-03-25T11:59:42;96770.53;;;10.14;95.44
43155;BME280;34212;51.018;13.586;2023-03-25T12:05:02;96758.75;;;10.50;95.80
43155;BME280;34212;51.018;13.586;2023-03-25T12:10:05;96769.81;;;10.47;92.93
43155;BME280;34212;51.018;13.586;2023-03-25T12:26:11;96748.06;;;10.50;93.04
43155;BME280;34212;51.018;13.586;2023-03-25T12:31:46;96745.38;;;10.77;93.77
43155;BME280;34212;51.018;13.586;2023-03-25T12:42:29;96807.84;;;10.14;88.22
43155;BME280;34212;51.018;13.586;2023-03-25T12:47:38;96750.47;;;9.44;91.39
43155;BME280;34212;51.018;13.586;2023-03-25T13:08:27;96723.63;;;10.00;96.15
43155;BME280;34212;51.018;13.586;2023-03-25T13:13:32;96707.88;;;10.32;97.06
43155;BME280;34212;51.018;13.586;2023-03-25T13:23:37;96686.94;;;10.75;96.80
43155;BME280;34212;51.018;13.586;2023-03-25T13:28:44;96671.28;;;10.99;96.23
43155;BME280;34212;51.018;13.586;2023-03-25T13:33:52;96666.22;;;11.36;96.70
43155;BME280;34212;51.018;13.586;2023-03-25T13:39:00;96672.78;;;11.78;96.22
43155;BME280;34212;51.018;13.586;2023-03-25T13:44:20;96670.63;;;12.25;95.63
43155;BME280;34212;51.018;13.586;2023-03-25T13:49:41;96673.34;;;12.87;95.46
43155;BME280;34212;51.018;13.586;2023-03-25T13:54:59;96663.00;;;12.72;90.73
43155;BME280;34212;51.018;13.586;2023-03-25T14:16:25;96666.75;;;11.89;89.75
43155;BME280;34212;51.018;13.586;2023-03-25T14:26:52;96661.63;;;11.49;88.03
43155;BME280;34212;51.018;13.586;2023-03-25T14:37:25;96782.84;;;10.15;79.93
43155;BME280;34212;51.018;13.586;2023-03-25T14:42:39;96778.13;;;8.52;86.40
43155;BME280;34212;51.018;13.586;2023-03-25T14:47:51;96778.69;;;8.04;92.63
43155;BME280;34212;51.018;13.586;2023-03-25T14:52:58;96744.22;;;7.90;92.88
43155;BME280;34212;51.018;13.586;2023-03-25T14:58:04;96753.03;;;7.75;93.52
43155;BME280;34212;51.018;13.586;2023-03-25T15:03:10;96726.59;;;7.82;95.46
43155;BME280;34212;51.018;13.586;2023-03-25T15:08:14;96701.81;;;7.96;95.63
43155;BME280;34212;51.018;13.586;2023-03-25T15:13:23;96696.53;;;8.24;97.41
43155;BME280;34212;51.018;13.586;2023-03-25T15:28:58;96696.88;;;9.06;96.63
43155;BME280;34212;51.018;13.586;2023-03-25T15:40:06;96706.19;;;8.82;93.56
43155;BME280;34212;51.018;13.586;2023-03-25T15:50:51;96731.13;;;9.77;93.37
43155;BME280;34212;51.018;13.586;2023-03-25T15:56:00;96735.50;;;9.36;91.22
43155;BME280;34212;51.018;13.586;2023-03-25T16:01:23;96750.19;;;9.25;92.47
43155;BME280;34212;51.018;13.586;2023-03-25T16:06:28;96741.91;;;9.07;92.90
43155;BME280;34212;51.018;13.586;2023-03-25T16:11:31;96743.69;;;9.00;92.94
43155;BME280;34212;51.018;13.586;2023-03-25T16:16:34;96742.50;;;9.09;93.53
43155;BME280;34212;51.018;13.586;2023-03-25T16:21:38;96738.25;;;9.15;92.79
43155;BME280;34212;51.018;13.586;2023-03-25T16:26:45;96737.44;;;9.14;91.80
43155;BME280;34212;51.018;13.586;2023-03-25T16:36:53;96747.66;;;9.11;91.00
43155;BME280;34212;51.018;13.586;2023-03-25T16:42:19;96740.63;;;9.03;91.45
43155;BME280;34212;51.018;13.586;2023-03-25T16:47:24;96747.13;;;8.94;90.63
43155;BME280;34212;51.018;13.586;2023-03-25T16:52:28;96755.66;;;8.83;90.74
43155;BME280;34212;51.018;13.586;2023-03-25T16:57:36;96751.56;;;8.80;91.04
43155;BME280;34212;51.018;13.586;2023-03-25T17:02:39;96746.84;;;8.75;90.57
43155;BME280;34212;51.018;13.586;2023-03-25T17:07:42;96745.94;;;8.68;90.45
43155;BME280;34212;51.018;13.586;2023-03-25T17:12:45;96743.19;;;8.55;91.03
43155;BME280;34212;51.018;13.586;2023-03-25T17:17:53;96748.03;;;8.45;90.71
43155;BME280;34212;51.018;13.586;2023-03-25T17:23:05;96749.16;;;8.36;90.79
43155;BME280;34212;51.018;13.586;2023-03-25T17:28:37;96748.50;;;8.33;90.96
43155;BME280;34212;51.018;13.586;2023-03-25T17:33:46;96749.53;;;8.32;90.27
43155;BME280;34212;51.018;13.586;2023-03-25T17:38:50;96755.84;;;8.31;90.34
43155;BME280;34212;51.018;13.586;2023-03-25T17:43:54;96761.34;;;8.30;90.52
43155;BME280;34212;51.018;13.586;2023-03-25T17:48:57;96757.25;;;8.27;90.16
43155;BME280;34212;51.018;13.586;2023-03-25T17:53:58;96747.00;;;8.24;89.14
43155;BME280;34212;51.018;13.586;2023-03-25T17:59:03;96754.31;;;8.22;89.50
43155;BME280;34212;51.018;13.586;2023-03-25T18:04:04;96764.34;;;8.20;89.52
43155;BME280;34212;51.018;13.586;2023-03-25T18:09:20;96754.91;;;8.18;89.76
43155;BME280;34212;51.018;13.586;2023-03-25T18:14:23;96762.59;;;8.13;89.41
43155;BME280;34212;51.018;13.586;2023-03-25T18:19:26;96761.94;;;8.04;89.97
43155;BME280;34212;51.018;13.586;2023-03-25T18:24:28;96771.91;;;8.02;90.55
43155;BME280;34212;51.018;13.586;2023-03-25T18:29:29;96789.47;;;8.03;91.19
43155;BME280;34212;51.018;13.586;2023-03-25T18:34:31;96785.69;;;8.12;92.16
43155;BME280;34212;51.018;13.586;2023-03-25T18:39:33;96787.47;;;8.26;92.52
43155;BME280;34212;51.018;13.586;2023-03-25T18:44:34;96789.59;;;8.38;92.30
43155;BME280;34212;51.018;13.586;2023-03-25T18:49:36;96775.41;;;8.45;92.44
43155;BME280;34212;51.018;13.586;2023-03-25T18:54:37;96793.88;;;8.53;92.27
43155;BME280;34212;51.018;13.586;2023-03-25T18:59:39;96779.19;;;8.58;91.76
43155;BME280;34212;51.018;13.586;2023-03-25T19:04:40;96785.06;;;8.53;91.81
43155;BME280;34212;51.018;13.586;2023-03-25T19:10:00;96780.72;;;8.45;91.53
43155;BME280;34212;51.018;13.586;2023-03-25T19:15:02;96775.81;;;8.42;91.33
43155;BME280;34212;51.018;13.586;2023-03-25T19:20:04;96778.03;;;8.39;91.45
43155;BME280;34212;51.018;13.586;2023-03-25T19:25:06;96776.91;;;8.33;91.98
43155;BME280;34212;51.018;13.586;2023-03-25T19:30:11;96780.91;;;8.44;92.02
43155;BME280;34212;51.018;13.586;2023-03-25T19:35:14;96784.50;;;8.58;92.61
43155;BME280;34212;51.018;13.586;2023-03-25T19:40:18;96810.16;;;8.72;92.02
43155;BME280;34212;51.018;13.586;2023-03-25T19:45:20;96822.94;;;8.83;91.99
43155;BME280;34212;51.018;13.586;2023-03-25T19:50:28;96871.63;;;8.84;90.69
43155;BME280;34212;51.018;13.586;2023-03-25T19:55:32;96858.69;;;8.38;90.24
43155;BME280;34212;51.018;13.586;2023-03-25T20:00:33;96798.88;;;7.84;91.57
43155;BME280;34212;51.018;13.586;2023-03-25T20:05:35;96783.47;;;7.58;93.99
43155;BME280;34212;51.018;13.586;2023-03-25T20:10:38;96783.84;;;7.55;95.21
43155;BME280;34212;51.018;13.586;2023-03-25T20:15:43;96778.53;;;7.55;95.80
43155;BME280;34212;51.018;13.586;2023-03-25T20:20:45;96783.84;;;7.55;95.24
43155;BME280;34212;51.018;13.586;2023-03-25T20:25:48;96787.25;;;7.49;95.19
43155;BME280;34212;51.018;13.586;2023-03-25T20:30:50;96806.56;;;7.43;95.26
43155;BME280;34212;51.018;13.586;2023-03-25T20:35:52;96800.44;;;7.42;95.93
43155;BME280;34212;51.018;13.586;2023-03-25T20:40:54;96768.88;;;7.32;95.38
43155;BME280;34212;51.018;13.586;2023-03-25T20:45:56;96764.03;;;7.21;95.36
43155;BME280;34212;51.018;13.586;2023-03-25T20:50:59;96756.44;;;7.18;95.53
43155;BME280;34212;51.018;13.586;2023-03-25T20:56:02;96752.34;;;7.15;95.10
43155;BME280;34212;51.018;13.586;2023-03-25T21:01:04;96761.75;;;7.18;95.92
43155;BME280;34212;51.018;13.586;2023-03-25T21:06:06;96757.72;;;7.22;95.69
43155;BME280;34212;51.018;13.586;2023-03-25T21:11:21;96758.66;;;7.29;96.03
43155;BME280;34212;51.018;13.586;2023-03-25T21:16:22;96755.34;;;7.27;95.88
43155;BME280;34212;51.018;13.586;2023-03-25T21:21:24;96750.41;;;7.24;95.05
43155;BME280;34212;51.018;13.586;2023-03-25T21:26:25;96769.53;;;7.20;95.43
43155;BME280;34212;51.018;13.586;2023-03-25T21:31:27;96749.59;;;7.24;95.58
43155;BME280;34212;51.018;13.586;2023-03-25T21:36:29;96756.88;;;7.36;96.27
43155;BME280;34212;51.018;13.586;2023-03-25T21:41:32;96745.16;;;7.46;96.59
43155;BME280;34212;51.018;13.586;2023-03-25T21:46:34;96750.09;;;7.49;96.37
43155;BME280;34212;51.018;13.586;2023-03-25T21:51:36;96736.41;;;7.45;95.46
43155;BME280;34212;51.018;13.586;2023-03-25T21:56:42;96760.63;;;7.42;95.43
43155;BME280;34212;51.018;13.586;2023-03-25T22:01:44;96758.81;;;7.43;95.30
43155;BME280;34212;51.018;13.586;2023-03-25T22:06:45;96759.44;;;7.45;95.50
43155;BME280;34212;51.018;13.586;2023-03-25T22:11:47;96765.00;;;7.50;94.81
43155;BME280;34212;51.018;13.586;2023-03-25T22:16:48;96769.31;;;7.51;94.29
43155;BME280;34212;51.018;13.586;2023-03-25T22:21:50;96773.59;;;7.52;94.76
43155;BME280;34212;51.018;13.586;2023-03-25T22:26:51;96766.91;;;7.56;94.50
43155;BME280;34212;51.018;13.586;2023-03-25T22:31:53;96770.94;;;7.67;95.17
43155;BME280;34212;51.018;13.586;2023-03-25T22:36:56;96765.31;;;7.76;94.72
43155;BME280;34212;51.018;13.586;2023-03-25T22:41:57;96761.66;;;7.77;94.45
43155;BME280;34212;51.018;13.586;2023-03-25T22:46:59;96758.34;;;7.75;93.73
43155;BME280;34212;51.018;13.586;2023-03-25T22:52:00;96752.44;;;7.73;94.70
43155;BME280;34212;51.018;13.586;2023-03-25T22:57:02;96755.91;;;7.74;94.88
43155;BME280;34212;51.018;13.586;2023-03-25T23:02:03;96759.81;;;7.78;94.87
43155;BME280;34212;51.018;13.586;2023-03-25T23:07:05;96751.84;;;7.78;95.11
43155;BME280;34212;51.018;13.586;2023-03-25T23:12:10;96759.19;;;7.76;95.52
43155;BME280;34212;51.018;13.586;2023-03-25T23:17:12;96757.53;;;7.75;95.75
43155;BME280;34212;51.018;13.586;2023-03-25T23:22:14;96757.53;;;7.75;95.14
43155;BME280;34212;51.018;13.586;2023-03-25T23:27:17;96762.47;;;7.78;95.85
43155;BME280;34212;51.018;13.586;2023-03-25T23:32:18;96756.78;;;7.81;94.80
43155;BME280;34212;51.018;13.586;2023-03-25T23:37:20;96765.94;;;7.78;94.83
43155;BME280;34212;51.018;13.586;2023-03-25T23:42:21;96770.88;;;7.81;95.07
43155;BME280;34212;51.018;13.586;2023-03-25T23:47:35;96766.22;;;7.83;94.84
43155;BME280;34212;51.018;13.586;2023-03-25T23:52:36;96764.00;;;7.87;94.87
43155;BME280;34212;51.018;13.586;2023-03-25T23:57:38;96779.09;;;7.86;93.67
